sensor_id;sensor_type;location;lat;lon;timestamp;temperature;humidity
35690;DHT22;26977;44.830;-0.674;2023-02-22T00:09:59;11.70;99.90
35690;DHT22;26977;44.830;-0.674;2023-02-22T01:39:32;11.30;99.90
35690;DHT22;26977;44.830;-0.674;2023-02-22T01:47:06;11.30;99.90
35690;DHT22;26977;44.830;-0.674;2023-02-22T01:49:45;11.30;99.90
35690;DHT22;26977;44.830;-0.674;2023-02-22T01:52:39;11.20;99.90
35690;DHT22;26977;44.830;-0.674;2023-02-22T01:55:29;11.20;99.90
35690;DHT22;26977;44.830;-0.674;2023-02-22T01:58:08;11.20;99.90
35690;DHT22;26977;44.830;-0.674;2023-02-22T02:01:18;11.20;99.90
35690;DHT22;26977;44.830;-0.674;2023-02-22T02:04:23;11.30;99.90
35690;DHT22;26977;44.830;-0.674;2023-02-22T02:07:35;11.30;99.90
35690;DHT22;26977;44.830;-0.674;2023-02-22T02:10:51;11.30;99.90
35690;DHT22;26977;44.830;-0.674;2023-02-22T02:13:54;11.20;99.90
35690;DHT22;26977;44.830;-0.674;2023-02-22T02:17:12;11.20;99.90
35690;DHT22;26977;44.830;-0.674;2023-02-22T02:38:33;10.80;99.90
35690;DHT22;26977;44.830;-0.674;2023-02-22T02:45:01;11.10;99.90
35690;DHT22;26977;44.830;-0.674;2023-02-22T02:48:37;11.10;99.90
35690;DHT22;26977;44.830;-0.674;2023-02-22T03:44:36;12.10;99.90
35690;DHT22;26977;44.830;-0.674;2023-02-22T03:47:44;10.80;99.90
35690;DHT22;26977;44.830;-0.674;2023-02-22T03:50:32;11.00;99.90
35690;DHT22;26977;44.830;-0.674;2023-02-22T03:53:51;11.00;99.90
35690;DHT22;26977;44.830;-0.674;2023-02-22T03:56:57;10.70;99.90
35690;DHT22;26977;44.830;-0.674;2023-02-22T04:00:02;11.00;99.90
35690;DHT22;26977;44.830;-0.674;2023-02-22T04:08:45;11.00;99.90
35690;DHT22;26977;44.830;-0.674;2023-02-22T04:20:12;11.00;99.90
35690;DHT22;26977;44.830;-0.674;2023-02-22T04:23:17;11.00;99.90
35690;DHT22;26977;44.830;-0.674;2023-02-22T04:33:04;10.90;99.90
35690;DHT22;26977;44.830;-0.674;2023-02-22T04:39:10;10.90;99.90
35690;DHT22;26977;44.830;-0.674;2023-02-22T04:42:02;12.00;99.90
35690;DHT22;26977;44.830;-0.674;2023-02-22T04:45:07;9.20;99.90
35690;DHT22;26977;44.830;-0.674;2023-02-22T04:48:10;10.80;99.90
35690;DHT22;26977;44.830;-0.674;2023-02-22T04:51:04;10.90;99.90
35690;DHT22;26977;44.830;-0.674;2023-02-22T04:56:29;10.90;99.90
35690;DHT22;26977;44.830;-0.674;2023-02-22T04:59:02;11.30;99.90
35690;DHT22;26977;44.830;-0.674;2023-02-22T05:02:29;11.00;99.90
35690;DHT22;26977;44.830;-0.674;2023-02-22T05:11:55;10.80;99.90
35690;DHT22;26977;44.830;-0.674;2023-02-22T05:39:58;10.90;99.90
35690;DHT22;26977;44.830;-0.674;2023-02-22T05:46:24;10.90;99.90
35690;DHT22;26977;44.830;-0.674;2023-02-22T05:49:54;11.00;99.90
35690;DHT22;26977;44.830;-0.674;2023-02-22T05:53:07;10.60;99.90
35690;DHT22;26977;44.830;-0.674;2023-02-22T05:59:27;10.90;99.90
35690;DHT22;26977;44.830;-0.674;2023-02-22T06:02:29;12.00;99.90
35690;DHT22;26977;44.830;-0.674;2023-02-22T06:05:53;8.80;99.90
35690;DHT22;26977;44.830;-0.674;2023-02-22T06:12:46;11.10;99.90
35690;DHT22;26977;44.830;-0.674;2023-02-22T06:16:06;11.10;99.90
35690;DHT22;26977;44.830;-0.674;2023-02-22T06:18:42;12.20;99.90
35690;DHT22;26977;44.830;-0.674;2023-02-22T06:21:16;11.10;99.90
35690;DHT22;26977;44.830;-0.674;2023-02-22T06:24:01;11.10;99.90
35690;DHT22;26977;44.830;-0.674;2023-02-22T06:26:55;9.60;99.90
35690;DHT22;26977;44.830;-0.674;2023-02-22T06:29:22;11.10;99.90
35690;DHT22;26977;44.830;-0.674;2023-02-22T06:31:48;11.00;99.90
35690;DHT22;26977;44.830;-0.674;2023-02-22T06:34:14;11.00;99.90
35690;DHT22;26977;44.830;-0.674;2023-02-22T06:36:40;11.00;99.90
35690;DHT22;26977;44.830;-0.674;2023-02-22T06:39:07;11.00;99.90
35690;DHT22;26977;44.830;-0.674;2023-02-22T06:41:39;11.00;99.90
35690;DHT22;26977;44.830;-0.674;2023-02-22T06:46:31;11.00;99.90
35690;DHT22;26977;44.830;-0.674;2023-02-22T06:51:26;11.00;99.90
35690;DHT22;26977;44.830;-0.674;2023-02-22T06:53:52;11.00;99.90
35690;DHT22;26977;44.830;-0.674;2023-02-22T06:56:18;11.00;99.90
35690;DHT22;26977;44.830;-0.674;2023-02-22T06:58:44;11.00;99.90
35690;DHT22;26977;44.830;-0.674;2023-02-22T07:01:11;10.90;99.90
35690;DHT22;26977;44.830;-0.674;2023-02-22T07:03:37;11.00;99.90
35690;DHT22;26977;44.830;-0.674;2023-02-22T07:06:09;11.00;99.90
35690;DHT22;26977;44.830;-0.674;2023-02-22T07:11:01;11.00;99.90
35690;DHT22;26977;44.830;-0.674;2023-02-22T07:13:27;11.00;99.90
35690;DHT22;26977;44.830;-0.674;2023-02-22T07:15:54;11.10;99.90
35690;DHT22;26977;44.830;-0.674;2023-02-22T07:18:19;11.00;99.90
35690;DHT22;26977;44.830;-0.674;2023-02-22T07:23:15;11.00;99.90
35690;DHT22;26977;44.830;-0.674;2023-02-22T07:25:41;11.00;99.90
35690;DHT22;26977;44.830;-0.674;2023-02-22T07:28:09;11.10;99.90
35690;DHT22;26977;44.830;-0.674;2023-02-22T07:30:37;11.10;99.90
35690;DHT22;26977;44.830;-0.674;2023-02-22T07:33:06;11.10;99.90
35690;DHT22;26977;44.830;-0.674;2023-02-22T07:35:41;11.10;99.90
35690;DHT22;26977;44.830;-0.674;2023-02-22T07:40:35;11.10;99.90
35690;DHT22;26977;44.830;-0.674;2023-02-22T07:43:03;11.20;99.90
35690;DHT22;26977;44.830;-0.674;2023-02-22T07:45:32;11.10;99.90
35690;DHT22;26977;44.830;-0.674;2023-02-22T07:47:59;11.20;99.90
35690;DHT22;26977;44.830;-0.674;2023-02-22T07:50:27;11.20;99.90
35690;DHT22;26977;44.830;-0.674;2023-02-22T07:52:55;11.20;99.90
35690;DHT22;26977;44.830;-0.674;2023-02-22T07:55:24;11.20;99.90
35690;DHT22;26977;44.830;-0.674;2023-02-22T07:57:53;11.20;99.90
35690;DHT22;26977;44.830;-0.674;2023-02-22T08:00:24;11.30;99.90
35690;DHT22;26977;44.830;-0.674;2023-02-22T08:02:50;11.30;99.90
35690;DHT22;26977;44.830;-0.674;2023-02-22T08:05:16;11.30;99.90
35690;DHT22;26977;44.830;-0.674;2023-02-22T08:07:42;11.40;99.90
35690;DHT22;26977;44.830;-0.674;2023-02-22T08:10:08;11.50;99.90
35690;DHT22;26977;44.830;-0.674;2023-02-22T08:12:35;11.50;99.90
35690;DHT22;26977;44.830;-0.674;2023-02-22T08:15:04;11.60;99.90
35690;DHT22;26977;44.830;-0.674;2023-02-22T08:17:30;11.60;99.90
35690;DHT22;26977;44.830;-0.674;2023-02-22T08:19:55;11.60;99.90
35690;DHT22;26977;44.830;-0.674;2023-02-22T08:22:21;11.60;99.90
35690;DHT22;26977;44.830;-0.674;2023-02-22T08:24:48;11.60;99.90
35690;DHT22;26977;44.830;-0.674;2023-02-22T08:29:40;11.70;99.90
35690;DHT22;26977;44.830;-0.674;2023-02-22T08:32:05;11.70;99.90
35690;DHT22;26977;44.830;-0.674;2023-02-22T08:34:31;11.70;99.90
35690;DHT22;26977;44.830;-0.674;2023-02-22T08:36:57;11.70;99.90
35690;DHT22;26977;44.830;-0.674;2023-02-22T08:39:23;11.80;99.90
35690;DHT22;26977;44.830;-0.674;2023-02-22T08:44:15;11.90;99.90
35690;DHT22;26977;44.830;-0.674;2023-02-22T08:46:40;11.90;99.90
35690;DHT22;26977;44.830;-0.674;2023-02-22T08:49:06;11.90;99.90
35690;DHT22;26977;44.830;-0.674;2023-02-22T08:51:35;11.90;99.90
35690;DHT22;26977;44.830;-0.674;2023-02-22T08:54:01;11.80;99.90
35690;DHT22;26977;44.830;-0.674;2023-02-22T08:56:28;11.90;99.90
35690;DHT22;26977;44.830;-0.674;2023-02-22T08:58:55;11.90;99.90
35690;DHT22;26977;44.830;-0.674;2023-02-22T09:01:22;11.90;99.90
35690;DHT22;26977;44.830;-0.674;2023-02-22T09:03:53;11.90;99.90
35690;DHT22;26977;44.830;-0.674;2023-02-22T09:06:22;11.90;99.90
35690;DHT22;26977;44.830;-0.674;2023-02-22T09:08:48;12.00;99.90
35690;DHT22;26977;44.830;-0.674;2023-02-22T09:11:15;12.00;99.90
35690;DHT22;26977;44.830;-0.674;2023-02-22T09:16:06;12.10;99.90
35690;DHT22;26977;44.830;-0.674;2023-02-22T09:18:32;12.10;99.90
35690;DHT22;26977;44.830;-0.674;2023-02-22T09:20:58;12.40;99.90
35690;DHT22;26977;44.830;-0.674;2023-02-22T09:25:50;12.20;99.90
35690;DHT22;26977;44.830;-0.674;2023-02-22T09:28:16;12.20;99.90
35690;DHT22;26977;44.830;-0.674;2023-02-22T09:30:43;12.20;99.90
35690;DHT22;26977;44.830;-0.674;2023-02-22T09:33:11;12.20;99.90
35690;DHT22;26977;44.830;-0.674;2023-02-22T09:35:38;12.20;99.90
35690;DHT22;26977;44.830;-0.674;2023-02-22T09:38:21;12.40;99.90
35690;DHT22;26977;44.830;-0.674;2023-02-22T09:46:44;12.30;99.90
35690;DHT22;26977;44.830;-0.674;2023-02-22T09:49:28;12.20;99.90
35690;DHT22;26977;44.830;-0.674;2023-02-22T09:52:21;12.30;99.90
35690;DHT22;26977;44.830;-0.674;2023-02-22T09:55:11;12.20;99.90
35690;DHT22;26977;44.830;-0.674;2023-02-22T09:57:44;12.10;99.90
35690;DHT22;26977;44.830;-0.674;2023-02-22T10:00:30;10.40;99.90
35690;DHT22;26977;44.830;-0.674;2023-02-22T10:03:27;12.20;99.90
35690;DHT22;26977;44.830;-0.674;2023-02-22T10:06:08;12.20;99.90
35690;DHT22;26977;44.830;-0.674;2023-02-22T10:08:47;12.20;99.90
35690;DHT22;26977;44.830;-0.674;2023-02-22T10:20:11;12.90;99.90
35690;DHT22;26977;44.830;-0.674;2023-02-22T10:22:53;12.60;99.90
35690;DHT22;26977;44.830;-0.674;2023-02-22T10:26:03;12.50;99.90
35690;DHT22;26977;44.830;-0.674;2023-02-22T10:35:43;11.90;99.90
35690;DHT22;26977;44.830;-0.674;2023-02-22T10:38:29;12.00;99.90
35690;DHT22;26977;44.830;-0.674;2023-02-22T10:41:11;12.70;99.90
35690;DHT22;26977;44.830;-0.674;2023-02-22T10:43:40;12.20;99.90
35690;DHT22;26977;44.830;-0.674;2023-02-22T10:46:10;12.20;99.90
35690;DHT22;26977;44.830;-0.674;2023-02-22T10:48:39;12.20;99.90
35690;DHT22;26977;44.830;-0.674;2023-02-22T10:51:07;12.10;99.90
35690;DHT22;26977;44.830;-0.674;2023-02-22T10:53:33;12.10;99.90
35690;DHT22;26977;44.830;-0.674;2023-02-22T10:56:18;12.20;99.90
35690;DHT22;26977;44.830;-0.674;2023-02-22T10:58:55;12.30;99.90
35690;DHT22;26977;44.830;-0.674;2023-02-22T11:04:02;12.40;99.90
35690;DHT22;26977;44.830;-0.674;2023-02-22T11:06:30;12.40;99.90
35690;DHT22;26977;44.830;-0.674;2023-02-22T11:11:36;12.30;99.90
35690;DHT22;26977;44.830;-0.674;2023-02-22T11:14:03;12.10;99.90
35690;DHT22;26977;44.830;-0.674;2023-02-22T11:16:36;12.10;99.90
35690;DHT22;26977;44.830;-0.674;2023-02-22T11:19:15;12.10;99.90
35690;DHT22;26977;44.830;-0.674;2023-02-22T11:21:42;12.10;99.90
35690;DHT22;26977;44.830;-0.674;2023-02-22T11:24:11;12.10;99.90
35690;DHT22;26977;44.830;-0.674;2023-02-22T11:26:46;12.10;99.90
35690;DHT22;26977;44.830;-0.674;2023-02-22T11:29:26;12.20;99.90
35690;DHT22;26977;44.830;-0.674;2023-02-22T11:38:53;12.40;99.90
35690;DHT22;26977;44.830;-0.674;2023-02-22T11:41:32;12.40;99.90
35690;DHT22;26977;44.830;-0.674;2023-02-22T11:44:34;12.50;99.90
35690;DHT22;26977;44.830;-0.674;2023-02-22T12:15:49;13.00;99.90
35690;DHT22;26977;44.830;-0.674;2023-02-22T12:21:05;12.90;99.90
35690;DHT22;26977;44.830;-0.674;2023-02-22T12:32:58;13.40;99.90
35690;DHT22;26977;44.830;-0.674;2023-02-22T12:35:31;13.20;99.90
35690;DHT22;26977;44.830;-0.674;2023-02-22T12:38:19;13.10;99.90
35690;DHT22;26977;44.830;-0.674;2023-02-22T12:46:14;13.20;99.90
35690;DHT22;26977;44.830;-0.674;2023-02-22T13:02:57;12.70;99.90
35690;DHT22;26977;44.830;-0.674;2023-02-22T13:05:24;12.70;99.90
35690;DHT22;26977;44.830;-0.674;2023-02-22T13:07:55;12.70;99.90
35690;DHT22;26977;44.830;-0.674;2023-02-22T13:21:42;12.60;99.90
35690;DHT22;26977;44.830;-0.674;2023-02-22T13:24:27;12.60;99.90
35690;DHT22;26977;44.830;-0.674;2023-02-22T13:27:00;12.70;99.90
35690;DHT22;26977;44.830;-0.674;2023-02-22T13:29:38;12.80;99.90
35690;DHT22;26977;44.830;-0.674;2023-02-22T13:49:13;12.30;99.90
35690;DHT22;26977;44.830;-0.674;2023-02-22T13:51:55;12.40;99.90
35690;DHT22;26977;44.830;-0.674;2023-02-22T13:54:37;12.30;99.90
35690;DHT22;26977;44.830;-0.674;2023-02-22T13:57:35;12.40;99.90
35690;DHT22;26977;44.830;-0.674;2023-02-22T14:03:03;12.40;99.90
35690;DHT22;26977;44.830;-0.674;2023-02-22T14:08:04;12.50;99.90
35690;DHT22;26977;44.830;-0.674;2023-02-22T14:10:36;12.60;99.90
35690;DHT22;26977;44.830;-0.674;2023-02-22T14:13:06;12.70;99.90
35690;DHT22;26977;44.830;-0.674;2023-02-22T14:15:32;12.80;99.90
35690;DHT22;26977;44.830;-0.674;2023-02-22T14:18:04;12.80;99.90
35690;DHT22;26977;44.830;-0.674;2023-02-22T14:20:36;12.90;99.90
35690;DHT22;26977;44.830;-0.674;2023-02-22T14:23:28;12.90;99.90
35690;DHT22;26977;44.830;-0.674;2023-02-22T14:26:10;13.10;99.90
35690;DHT22;26977;44.830;-0.674;2023-02-22T14:34:16;13.60;99.90
35690;DHT22;26977;44.830;-0.674;2023-02-22T14:47:31;13.40;99.90
35690;DHT22;26977;44.830;-0.674;2023-02-22T14:50:13;13.20;99.90
35690;DHT22;26977;44.830;-0.674;2023-02-22T14:52:42;13.00;99.90
35690;DHT22;26977;44.830;-0.674;2023-02-22T14:55:20;13.10;99.90
35690;DHT22;26977;44.830;-0.674;2023-02-22T14:58:00;13.00;99.90
35690;DHT22;26977;44.830;-0.674;2023-02-22T15:03:03;13.10;99.90
35690;DHT22;26977;44.830;-0.674;2023-02-22T15:05:35;13.10;99.90
35690;DHT22;26977;44.830;-0.674;2023-02-22T15:08:05;13.10;99.90
35690;DHT22;26977;44.830;-0.674;2023-02-22T15:15:41;13.10;99.90
35690;DHT22;26977;44.830;-0.674;2023-02-22T15:18:23;13.00;99.90
35690;DHT22;26977;44.830;-0.674;2023-02-22T15:20:54;12.80;99.90
35690;DHT22;26977;44.830;-0.674;2023-02-22T15:23:27;12.80;99.90
35690;DHT22;26977;44.830;-0.674;2023-02-22T15:28:26;12.80;99.90
35690;DHT22;26977;44.830;-0.674;2023-02-22T15:31:20;12.90;99.90
35690;DHT22;26977;44.830;-0.674;2023-02-22T15:36:19;12.90;99.90
35690;DHT22;26977;44.830;-0.674;2023-02-22T15:38:49;12.90;99.90
35690;DHT22;26977;44.830;-0.674;2023-02-22T15:41:24;13.00;99.90
35690;DHT22;26977;44.830;-0.674;2023-02-22T15:44:07;13.10;99.90
35690;DHT22;26977;44.830;-0.674;2023-02-22T15:49:16;13.10;99.90
35690;DHT22;26977;44.830;-0.674;2023-02-22T15:51:45;13.10;99.90
35690;DHT22;26977;44.830;-0.674;2023-02-22T15:56:50;13.20;99.90
35690;DHT22;26977;44.830;-0.674;2023-02-22T16:04:21;13.20;99.90
35690;DHT22;26977;44.830;-0.674;2023-02-22T16:06:48;13.10;99.90
35690;DHT22;26977;44.830;-0.674;2023-02-22T16:09:20;13.10;99.90
35690;DHT22;26977;44.830;-0.674;2023-02-22T16:12:06;13.10;99.90
35690;DHT22;26977;44.830;-0.674;2023-02-22T16:17:26;12.70;99.90
35690;DHT22;26977;44.830;-0.674;2023-02-22T16:19:58;12.30;99.90
35690;DHT22;26977;44.830;-0.674;2023-02-22T16:22:34;12.10;99.90
35690;DHT22;26977;44.830;-0.674;2023-02-22T16:27:51;11.90;99.90
35690;DHT22;26977;44.830;-0.674;2023-02-22T16:32:47;11.80;99.90
35690;DHT22;26977;44.830;-0.674;2023-02-22T16:35:13;11.80;99.90
35690;DHT22;26977;44.830;-0.674;2023-02-22T16:40:33;11.70;99.90
35690;DHT22;26977;44.830;-0.674;2023-02-22T16:43:05;11.70;99.90
35690;DHT22;26977;44.830;-0.674;2023-02-22T16:52:52;11.60;99.90
35690;DHT22;26977;44.830;-0.674;2023-02-22T16:55:20;11.60;99.90
35690;DHT22;26977;44.830;-0.674;2023-02-22T16:57:48;11.60;99.90
35690;DHT22;26977;44.830;-0.674;2023-02-22T17:00:17;11.60;99.90
35690;DHT22;26977;44.830;-0.674;2023-02-22T17:05:45;11.50;99.90
35690;DHT22;26977;44.830;-0.674;2023-02-22T17:08:24;11.40;99.90
35690;DHT22;26977;44.830;-0.674;2023-02-22T17:19:02;11.30;99.90
35690;DHT22;26977;44.830;-0.674;2023-02-22T17:21:43;11.30;99.90
35690;DHT22;26977;44.830;-0.674;2023-02-22T17:24:23;11.30;99.90
35690;DHT22;26977;44.830;-0.674;2023-02-22T18:06:45;11.10;99.90
35690;DHT22;26977;44.830;-0.674;2023-02-22T18:17:06;11.00;99.90
35690;DHT22;26977;44.830;-0.674;2023-02-22T18:21:58;11.40;99.90
35690;DHT22;26977;44.830;-0.674;2023-02-22T18:24:31;11.00;99.90
35690;DHT22;26977;44.830;-0.674;2023-02-22T18:26:58;11.00;99.90
35690;DHT22;26977;44.830;-0.674;2023-02-22T18:31:54;11.00;99.90
35690;DHT22;26977;44.830;-0.674;2023-02-22T18:34:33;11.00;99.90
35690;DHT22;26977;44.830;-0.674;2023-02-22T18:51:39;11.00;99.90
35690;DHT22;26977;44.830;-0.674;2023-02-22T18:59:01;10.90;99.90
35690;DHT22;26977;44.830;-0.674;2023-02-22T19:01:29;11.20;99.90
35690;DHT22;26977;44.830;-0.674;2023-02-22T19:06:21;10.90;99.90
35690;DHT22;26977;44.830;-0.674;2023-02-22T19:11:24;10.90;99.90
35690;DHT22;26977;44.830;-0.674;2023-02-22T19:13:52;10.90;99.90
35690;DHT22;26977;44.830;-0.674;2023-02-22T19:16:20;10.80;99.90
35690;DHT22;26977;44.830;-0.674;2023-02-22T19:18:47;10.80;99.90
35690;DHT22;26977;44.830;-0.674;2023-02-22T19:21:14;10.80;99.90
35690;DHT22;26977;44.830;-0.674;2023-02-22T19:23:41;10.80;99.90
35690;DHT22;26977;44.830;-0.674;2023-02-22T19:26:15;10.80;99.90
35690;DHT22;26977;44.830;-0.674;2023-02-22T19:28:47;10.80;99.90
35690;DHT22;26977;44.830;-0.674;2023-02-22T19:31:20;10.80;99.90
35690;DHT22;26977;44.830;-0.674;2023-02-22T19:33:47;10.80;99.90
35690;DHT22;26977;44.830;-0.674;2023-02-22T19:41:19;10.80;99.90
35690;DHT22;26977;44.830;-0.674;2023-02-22T19:43:50;10.80;99.90
35690;DHT22;26977;44.830;-0.674;2023-02-22T19:46:17;10.80;99.90
35690;DHT22;26977;44.830;-0.674;2023-02-22T19:48:44;10.70;99.90
35690;DHT22;26977;44.830;-0.674;2023-02-22T19:51:11;10.70;99.90
35690;DHT22;26977;44.830;-0.674;2023-02-22T19:53:39;10.80;99.90
35690;DHT22;26977;44.830;-0.674;2023-02-22T19:56:10;10.80;99.90
35690;DHT22;26977;44.830;-0.674;2023-02-22T19:58:38;10.70;99.90
35690;DHT22;26977;44.830;-0.674;2023-02-22T20:01:20;10.70;99.90
35690;DHT22;26977;44.830;-0.674;2023-02-22T20:03:59;10.70;99.90
35690;DHT22;26977;44.830;-0.674;2023-02-22T20:06:28;10.70;99.90
35690;DHT22;26977;44.830;-0.674;2023-02-22T20:08:55;10.70;99.90
35690;DHT22;26977;44.830;-0.674;2023-02-22T20:11:22;10.70;99.90
35690;DHT22;26977;44.830;-0.674;2023-02-22T20:16:14;10.70;99.90
35690;DHT22;26977;44.830;-0.674;2023-02-22T20:18:44;10.70;99.90
35690;DHT22;26977;44.830;-0.674;2023-02-22T20:21:12;10.70;99.90
35690;DHT22;26977;44.830;-0.674;2023-02-22T20:26:16;10.60;99.90
35690;DHT22;26977;44.830;-0.674;2023-02-22T20:31:09;10.60;99.90
35690;DHT22;26977;44.830;-0.674;2023-02-22T20:36:07;10.60;99.90
35690;DHT22;26977;44.830;-0.674;2023-02-22T20:38:34;10.60;99.90
35690;DHT22;26977;44.830;-0.674;2023-02-22T20:43:25;10.60;99.90
35690;DHT22;26977;44.830;-0.674;2023-02-22T21:00:27;10.50;99.90
35690;DHT22;26977;44.830;-0.674;2023-02-22T21:02:54;10.50;99.90
35690;DHT22;26977;44.830;-0.674;2023-02-22T21:05:20;10.50;99.90
35690;DHT22;26977;44.830;-0.674;2023-02-22T21:07:45;10.50;99.90
35690;DHT22;26977;44.830;-0.674;2023-02-22T21:19:56;10.40;99.90
35690;DHT22;26977;44.830;-0.674;2023-02-22T21:22:25;10.40;99.90
35690;DHT22;26977;44.830;-0.674;2023-02-22T21:32:10;10.20;99.90
35690;DHT22;26977;44.830;-0.674;2023-02-22T21:49:17;10.10;99.90
35690;DHT22;26977;44.830;-0.674;2023-02-22T21:56:41;10.00;99.90
35690;DHT22;26977;44.830;-0.674;2023-02-22T21:59:12;10.00;99.90
35690;DHT22;26977;44.830;-0.674;2023-02-22T22:01:41;10.00;99.90
35690;DHT22;26977;44.830;-0.674;2023-02-22T22:04:21;10.00;99.90
35690;DHT22;26977;44.830;-0.674;2023-02-22T22:06:52;10.00;99.90
35690;DHT22;26977;44.830;-0.674;2023-02-22T22:09:19;9.90;99.90
35690;DHT22;26977;44.830;-0.674;2023-02-22T22:11:50;9.90;99.90
35690;DHT22;26977;44.830;-0.674;2023-02-22T22:14:21;9.90;99.90
35690;DHT22;26977;44.830;-0.674;2023-02-22T22:16:57;9.80;99.90
35690;DHT22;26977;44.830;-0.674;2023-02-22T22:19:28;9.80;99.90
35690;DHT22;26977;44.830;-0.674;2023-02-22T22:24:21;9.70;99.90
35690;DHT22;26977;44.830;-0.674;2023-02-22T22:29:17;9.70;99.90
35690;DHT22;26977;44.830;-0.674;2023-02-22T22:31:44;9.70;99.90
35690;DHT22;26977;44.830;-0.674;2023-02-22T22:39:06;9.70;99.90
35690;DHT22;26977;44.830;-0.674;2023-02-22T22:41:41;9.60;99.90
35690;DHT22;26977;44.830;-0.674;2023-02-22T22:46:35;9.60;99.90
35690;DHT22;26977;44.830;-0.674;2023-02-22T22:49:10;9.50;99.90
35690;DHT22;26977;44.830;-0.674;2023-02-22T22:51:36;9.40;99.90
35690;DHT22;26977;44.830;-0.674;2023-02-22T22:54:03;9.30;99.90
35690;DHT22;26977;44.830;-0.674;2023-02-22T22:56:30;9.20;99.90
35690;DHT22;26977;44.830;-0.674;2023-02-22T22:59:01;9.10;99.90
35690;DHT22;26977;44.830;-0.674;2023-02-22T23:01:39;9.10;99.90
35690;DHT22;26977;44.830;-0.674;2023-02-22T23:04:10;9.00;99.90
35690;DHT22;26977;44.830;-0.674;2023-02-22T23:06:39;9.00;99.90
35690;DHT22;26977;44.830;-0.674;2023-02-22T23:09:19;9.00;99.90
35690;DHT22;26977;44.830;-0.674;2023-02-22T23:11:57;8.90;99.90
35690;DHT22;26977;44.830;-0.674;2023-02-22T23:14:31;8.90;99.90
35690;DHT22;26977;44.830;-0.674;2023-02-22T23:16:58;8.90;99.90
35690;DHT22;26977;44.830;-0.674;2023-02-22T23:19:32;8.90;99.90
35690;DHT22;26977;44.830;-0.674;2023-02-22T23:21:58;8.90;99.90
35690;DHT22;26977;44.830;-0.674;2023-02-22T23:24:24;8.90;99.90
35690;DHT22;26977;44.830;-0.674;2023-02-22T23:26:54;8.90;99.90
35690;DHT22;26977;44.830;-0.674;2023-02-22T23:31:50;8.80;99.90
35690;DHT22;26977;44.830;-0.674;2023-02-22T23:34:17;8.70;99.90
35690;DHT22;26977;44.830;-0.674;2023-02-22T23:36:45;8.70;99.90
35690;DHT22;26977;44.830;-0.674;2023-02-22T23:39:13;8.70;99.90
35690;DHT22;26977;44.830;-0.674;2023-02-22T23:41:40;8.70;99.90
35690;DHT22;26977;44.830;-0.674;2023-02-22T23:44:07;8.60;99.90
35690;DHT22;26977;44.830;-0.674;2023-02-22T23:46:34;8.70;99.90
35690;DHT22;26977;44.830;-0.674;2023-02-22T23:49:02;8.70;99.90
35690;DHT22;26977;44.830;-0.674;2023-02-22T23:51:29;8.70;99.90
35690;DHT22;26977;44.830;-0.674;2023-02-22T23:54:08;8.60;99.90
35690;DHT22;26977;44.830;-0.674;2023-02-22T23:59:02;8.60;99.90
